sensor_id;sensor_type;location;lat;lon;timestamp;P1;durP1;ratioP1;P2;durP2;ratioP2
8490;SDS011;4282;49.986;7.938;2024-02-15T00:00:01;12.13;;;8.40;;
8490;SDS011;4282;49.986;7.938;2024-02-15T00:02:32;11.27;;;9.17;;
8490;SDS011;4282;49.986;7.938;2024-02-15T00:05:00;13.27;;;9.20;;
8490;SDS011;4282;49.986;7.938;2024-02-15T00:07:29;14.23;;;9.00;;
8490;SDS011;4282;49.986;7.938;2024-02-15T00:09:59;10.63;;;8.37;;
8490;SDS011;4282;49.986;7.938;2024-02-15T00:12:29;12.27;;;8.10;;
8490;SDS011;4282;49.986;7.938;2024-02-15T00:14:57;8.87;;;7.17;;
8490;SDS011;4282;49.986;7.938;2024-02-15T00:17:26;7.77;;;6.57;;
8490;SDS011;4282;49.986;7.938;2024-02-15T00:19:55;7.53;;;6.23;;
8490;SDS011;4282;49.986;7.938;2024-02-15T00:22:25;7.37;;;6.63;;
8490;SDS011;4282;49.986;7.938;2024-02-15T00:24:53;6.87;;;6.10;;
8490;SDS011;4282;49.986;7.938;2024-02-15T00:27:24;9.13;;;6.00;;
8490;SDS011;4282;49.986;7.938;2024-02-15T00:29:52;6.97;;;5.67;;
8490;SDS011;4282;49.986;7.938;2024-02-15T00:32:20;6.57;;;5.87;;
8490;SDS011;4282;49.986;7.938;2024-02-15T00:34:48;8.73;;;6.90;;
8490;SDS011;4282;49.986;7.938;2024-02-15T00:37:17;10.43;;;6.80;;
8490;SDS011;4282;49.986;7.938;2024-02-15T00:39:45;6.80;;;5.90;;
8490;SDS011;4282;49.986;7.938;2024-02-15T00:42:13;8.20;;;6.37;;
8490;SDS011;4282;49.986;7.938;2024-02-15T00:44:44;7.13;;;6.27;;
8490;SDS011;4282;49.986;7.938;2024-02-15T00:47:12;9.77;;;6.87;;
8490;SDS011;4282;49.986;7.938;2024-02-15T00:49:43;9.63;;;7.20;;
8490;SDS011;4282;49.986;7.938;2024-02-15T00:52:12;8.47;;;6.40;;
8490;SDS011;4282;49.986;7.938;2024-02-15T00:54:40;10.53;;;7.90;;
8490;SDS011;4282;49.986;7.938;2024-02-15T00:57:08;10.73;;;7.97;;
8490;SDS011;4282;49.986;7.938;2024-02-15T00:59:37;9.77;;;7.97;;
8490;SDS011;4282;49.986;7.938;2024-02-15T01:02:08;10.80;;;8.17;;
8490;SDS011;4282;49.986;7.938;2024-02-15T01:04:37;12.00;;;8.83;;
8490;SDS011;4282;49.986;7.938;2024-02-15T01:07:05;12.40;;;9.17;;
8490;SDS011;4282;49.986;7.938;2024-02-15T01:09:33;12.13;;;10.03;;
8490;SDS011;4282;49.986;7.938;2024-02-15T01:12:01;12.07;;;9.67;;
8490;SDS011;4282;49.986;7.938;2024-02-15T01:14:30;11.70;;;8.83;;
8490;SDS011;4282;49.986;7.938;2024-02-15T01:16:59;10.60;;;8.43;;
8490;SDS011;4282;49.986;7.938;2024-02-15T01:19:30;12.70;;;9.37;;
8490;SDS011;4282;49.986;7.938;2024-02-15T01:21:58;13.93;;;8.87;;
8490;SDS011;4282;49.986;7.938;2024-02-15T01:24:27;12.03;;;9.17;;
8490;SDS011;4282;49.986;7.938;2024-02-15T01:26:56;12.57;;;9.63;;
8490;SDS011;4282;49.986;7.938;2024-02-15T01:29:24;14.90;;;10.50;;
8490;SDS011;4282;49.986;7.938;2024-02-15T01:31:52;13.20;;;9.87;;
8490;SDS011;4282;49.986;7.938;2024-02-15T01:34:21;15.13;;;8.77;;
8490;SDS011;4282;49.986;7.938;2024-02-15T01:36:51;11.77;;;8.87;;
8490;SDS011;4282;49.986;7.938;2024-02-15T01:39:20;11.23;;;8.47;;
8490;SDS011;4282;49.986;7.938;2024-02-15T01:41:48;12.40;;;8.80;;
8490;SDS011;4282;49.986;7.938;2024-02-15T01:44:21;14.63;;;8.90;;
8490;SDS011;4282;49.986;7.938;2024-02-15T01:46:49;11.77;;;8.00;;
8490;SDS011;4282;49.986;7.938;2024-02-15T01:49:19;12.93;;;8.07;;
8490;SDS011;4282;49.986;7.938;2024-02-15T01:51:51;11.80;;;8.53;;
8490;SDS011;4282;49.986;7.938;2024-02-15T01:54:21;11.00;;;7.87;;
8490;SDS011;4282;49.986;7.938;2024-02-15T01:56:50;10.47;;;7.90;;
8490;SDS011;4282;49.986;7.938;2024-02-15T01:59:19;12.47;;;8.57;;
8490;SDS011;4282;49.986;7.938;2024-02-15T02:01:48;12.17;;;9.17;;
8490;SDS011;4282;49.986;7.938;2024-02-15T02:04:17;12.57;;;9.60;;
8490;SDS011;4282;49.986;7.938;2024-02-15T02:06:45;10.53;;;8.70;;
8490;SDS011;4282;49.986;7.938;2024-02-15T02:09:16;12.67;;;9.50;;
8490;SDS011;4282;49.986;7.938;2024-02-15T02:11:45;13.10;;;8.77;;
8490;SDS011;4282;49.986;7.938;2024-02-15T02:14:15;9.47;;;7.67;;
8490;SDS011;4282;49.986;7.938;2024-02-15T02:16:45;10.13;;;7.97;;
8490;SDS011;4282;49.986;7.938;2024-02-15T02:19:14;8.80;;;7.37;;
8490;SDS011;4282;49.986;7.938;2024-02-15T02:21:42;8.90;;;7.50;;
8490;SDS011;4282;49.986;7.938;2024-02-15T02:24:19;8.30;;;6.47;;
8490;SDS011;4282;49.986;7.938;2024-02-15T02:26:52;8.20;;;6.57;;
8490;SDS011;4282;49.986;7.938;2024-02-15T02:29:20;9.83;;;6.77;;
8490;SDS011;4282;49.986;7.938;2024-02-15T02:31:49;8.80;;;6.30;;
8490;SDS011;4282;49.986;7.938;2024-02-15T02:34:17;8.43;;;6.80;;
8490;SDS011;4282;49.986;7.938;2024-02-15T02:36:45;8.37;;;6.67;;
8490;SDS011;4282;49.986;7.938;2024-02-15T02:39:15;7.80;;;6.53;;
8490;SDS011;4282;49.986;7.938;2024-02-15T02:41:43;8.23;;;6.43;;
8490;SDS011;4282;49.986;7.938;2024-02-15T02:44:14;7.83;;;6.20;;
8490;SDS011;4282;49.986;7.938;2024-02-15T02:46:43;9.13;;;7.30;;
8490;SDS011;4282;49.986;7.938;2024-02-15T02:49:11;10.03;;;6.50;;
8490;SDS011;4282;49.986;7.938;2024-02-15T02:51:39;9.10;;;7.70;;
8490;SDS011;4282;49.986;7.938;2024-02-15T02:54:08;10.20;;;8.30;;
8490;SDS011;4282;49.986;7.938;2024-02-15T02:56:36;11.40;;;8.23;;
8490;SDS011;4282;49.986;7.938;2024-02-15T02:59:04;11.40;;;8.70;;
8490;SDS011;4282;49.986;7.938;2024-02-15T03:01:35;10.60;;;7.73;;
8490;SDS011;4282;49.986;7.938;2024-02-15T03:04:04;10.73;;;8.07;;
8490;SDS011;4282;49.986;7.938;2024-02-15T03:06:33;12.10;;;8.37;;
8490;SDS011;4282;49.986;7.938;2024-02-15T03:09:01;10.27;;;7.43;;
8490;SDS011;4282;49.986;7.938;2024-02-15T03:11:32;12.17;;;8.77;;
8490;SDS011;4282;49.986;7.938;2024-02-15T03:14:01;11.20;;;8.30;;
8490;SDS011;4282;49.986;7.938;2024-02-15T03:16:29;9.87;;;8.17;;
8490;SDS011;4282;49.986;7.938;2024-02-15T03:19:01;10.73;;;8.03;;
8490;SDS011;4282;49.986;7.938;2024-02-15T03:21:30;10.27;;;7.60;;
8490;SDS011;4282;49.986;7.938;2024-02-15T03:23:58;14.13;;;8.07;;
8490;SDS011;4282;49.986;7.938;2024-02-15T03:26:29;8.60;;;7.33;;
8490;SDS011;4282;49.986;7.938;2024-02-15T03:29:03;10.20;;;7.80;;
8490;SDS011;4282;49.986;7.938;2024-02-15T03:31:33;10.53;;;8.20;;
8490;SDS011;4282;49.986;7.938;2024-02-15T03:34:04;10.17;;;8.30;;
8490;SDS011;4282;49.986;7.938;2024-02-15T03:36:32;10.47;;;8.43;;
8490;SDS011;4282;49.986;7.938;2024-02-15T03:39:00;11.13;;;8.47;;
8490;SDS011;4282;49.986;7.938;2024-02-15T03:41:31;11.13;;;8.87;;
8490;SDS011;4282;49.986;7.938;2024-02-15T03:43:59;11.50;;;9.00;;
8490;SDS011;4282;49.986;7.938;2024-02-15T03:46:27;10.90;;;9.00;;
8490;SDS011;4282;49.986;7.938;2024-02-15T03:48:57;13.37;;;8.83;;
8490;SDS011;4282;49.986;7.938;2024-02-15T03:51:28;11.63;;;9.07;;
8490;SDS011;4282;49.986;7.938;2024-02-15T03:53:57;9.40;;;8.40;;
8490;SDS011;4282;49.986;7.938;2024-02-15T03:56:25;10.33;;;8.20;;
8490;SDS011;4282;49.986;7.938;2024-02-15T03:58:54;10.23;;;7.87;;
8490;SDS011;4282;49.986;7.938;2024-02-15T04:01:22;11.03;;;6.93;;
8490;SDS011;4282;49.986;7.938;2024-02-15T04:03:52;10.17;;;7.63;;
8490;SDS011;4282;49.986;7.938;2024-02-15T04:06:20;10.73;;;7.17;;
8490;SDS011;4282;49.986;7.938;2024-02-15T04:08:52;9.77;;;6.83;;
8490;SDS011;4282;49.986;7.938;2024-02-15T04:11:21;10.03;;;7.30;;
8490;SDS011;4282;49.986;7.938;2024-02-15T04:13:49;9.17;;;7.17;;
8490;SDS011;4282;49.986;7.938;2024-02-15T04:16:17;9.10;;;6.60;;
8490;SDS011;4282;49.986;7.938;2024-02-15T04:18:45;7.17;;;6.27;;
8490;SDS011;4282;49.986;7.938;2024-02-15T04:21:14;10.20;;;7.37;;
8490;SDS011;4282;49.986;7.938;2024-02-15T04:23:44;9.80;;;7.10;;
8490;SDS011;4282;49.986;7.938;2024-02-15T04:26:15;10.07;;;6.80;;
8490;SDS011;4282;49.986;7.938;2024-02-15T04:28:44;10.77;;;7.53;;
8490;SDS011;4282;49.986;7.938;2024-02-15T04:31:17;11.77;;;7.50;;
8490;SDS011;4282;49.986;7.938;2024-02-15T04:33:46;9.50;;;7.50;;
8490;SDS011;4282;49.986;7.938;2024-02-15T04:36:15;10.33;;;7.67;;
8490;SDS011;4282;49.986;7.938;2024-02-15T04:38:48;12.00;;;7.63;;
8490;SDS011;4282;49.986;7.938;2024-02-15T04:41:19;11.63;;;8.37;;
8490;SDS011;4282;49.986;7.938;2024-02-15T04:43:48;10.43;;;8.10;;
8490;SDS011;4282;49.986;7.938;2024-02-15T04:46:16;11.03;;;8.30;;
8490;SDS011;4282;49.986;7.938;2024-02-15T04:48:46;9.30;;;7.27;;
8490;SDS011;4282;49.986;7.938;2024-02-15T04:51:14;10.73;;;7.80;;
8490;SDS011;4282;49.986;7.938;2024-02-15T04:53:44;10.37;;;8.40;;
8490;SDS011;4282;49.986;7.938;2024-02-15T04:56:14;12.17;;;8.63;;
8490;SDS011;4282;49.986;7.938;2024-02-15T04:58:45;9.13;;;7.20;;
8490;SDS011;4282;49.986;7.938;2024-02-15T05:01:13;12.23;;;8.60;;
8490;SDS011;4282;49.986;7.938;2024-02-15T05:03:42;10.90;;;8.10;;
8490;SDS011;4282;49.986;7.938;2024-02-15T05:06:11;12.37;;;8.30;;
8490;SDS011;4282;49.986;7.938;2024-02-15T05:08:40;10.70;;;7.30;;
8490;SDS011;4282;49.986;7.938;2024-02-15T05:11:10;11.10;;;8.17;;
8490;SDS011;4282;49.986;7.938;2024-02-15T05:13:44;12.67;;;8.50;;
8490;SDS011;4282;49.986;7.938;2024-02-15T05:16:15;9.70;;;8.03;;
8490;SDS011;4282;49.986;7.938;2024-02-15T05:18:43;9.87;;;8.70;;
8490;SDS011;4282;49.986;7.938;2024-02-15T05:21:12;11.13;;;8.07;;
8490;SDS011;4282;49.986;7.938;2024-02-15T05:23:40;13.30;;;8.20;;
8490;SDS011;4282;49.986;7.938;2024-02-15T05:26:10;10.87;;;8.40;;
8490;SDS011;4282;49.986;7.938;2024-02-15T05:28:41;11.63;;;8.27;;
8490;SDS011;4282;49.986;7.938;2024-02-15T05:31:13;12.07;;;8.70;;
8490;SDS011;4282;49.986;7.938;2024-02-15T05:33:42;10.43;;;8.60;;
8490;SDS011;4282;49.986;7.938;2024-02-15T05:36:12;13.30;;;8.50;;
8490;SDS011;4282;49.986;7.938;2024-02-15T05:38:41;11.53;;;8.93;;
8490;SDS011;4282;49.986;7.938;2024-02-15T05:41:10;12.17;;;8.30;;
8490;SDS011;4282;49.986;7.938;2024-02-15T05:43:39;12.07;;;8.87;;
8490;SDS011;4282;49.986;7.938;2024-02-15T05:46:08;11.63;;;8.93;;
8490;SDS011;4282;49.986;7.938;2024-02-15T05:48:40;11.73;;;9.03;;
8490;SDS011;4282;49.986;7.938;2024-02-15T05:51:09;10.53;;;9.13;;
8490;SDS011;4282;49.986;7.938;2024-02-15T05:53:37;12.47;;;9.10;;
8490;SDS011;4282;49.986;7.938;2024-02-15T05:56:06;12.60;;;8.30;;
8490;SDS011;4282;49.986;7.938;2024-02-15T05:58:35;11.10;;;7.50;;
8490;SDS011;4282;49.986;7.938;2024-02-15T06:01:05;11.47;;;7.67;;
8490;SDS011;4282;49.986;7.938;2024-02-15T06:03:37;11.30;;;8.20;;
8490;SDS011;4282;49.986;7.938;2024-02-15T06:06:09;11.63;;;9.27;;
8490;SDS011;4282;49.986;7.938;2024-02-15T06:08:37;12.10;;;8.27;;
8490;SDS011;4282;49.986;7.938;2024-02-15T06:11:06;11.47;;;8.67;;
8490;SDS011;4282;49.986;7.938;2024-02-15T06:13:35;13.80;;;8.83;;
8490;SDS011;4282;49.986;7.938;2024-02-15T06:16:03;11.70;;;8.60;;
8490;SDS011;4282;49.986;7.938;2024-02-15T06:18:34;13.83;;;10.07;;
8490;SDS011;4282;49.986;7.938;2024-02-15T06:21:03;11.97;;;9.40;;
8490;SDS011;4282;49.986;7.938;2024-02-15T06:23:34;12.43;;;9.80;;
8490;SDS011;4282;49.986;7.938;2024-02-15T06:26:02;12.67;;;11.30;;
8490;SDS011;4282;49.986;7.938;2024-02-15T06:28:31;15.07;;;11.60;;
8490;SDS011;4282;49.986;7.938;2024-02-15T06:31:13;15.27;;;10.27;;
8490;SDS011;4282;49.986;7.938;2024-02-15T06:33:53;14.40;;;9.90;;
8490;SDS011;4282;49.986;7.938;2024-02-15T06:36:34;15.43;;;10.57;;
8490;SDS011;4282;49.986;7.938;2024-02-15T06:39:22;17.80;;;11.10;;
8490;SDS011;4282;49.986;7.938;2024-02-15T06:42:03;13.83;;;10.00;;
8490;SDS011;4282;49.986;7.938;2024-02-15T06:44:31;14.80;;;10.53;;
8490;SDS011;4282;49.986;7.938;2024-02-15T06:47:00;13.70;;;9.67;;
8490;SDS011;4282;49.986;7.938;2024-02-15T06:49:29;13.53;;;10.43;;
8490;SDS011;4282;49.986;7.938;2024-02-15T06:51:58;16.63;;;11.70;;
8490;SDS011;4282;49.986;7.938;2024-02-15T06:54:30;18.27;;;11.90;;
8490;SDS011;4282;49.986;7.938;2024-02-15T06:56:58;19.77;;;12.73;;
8490;SDS011;4282;49.986;7.938;2024-02-15T06:59:27;20.30;;;12.20;;
8490;SDS011;4282;49.986;7.938;2024-02-15T07:01:56;17.77;;;13.00;;
8490;SDS011;4282;49.986;7.938;2024-02-15T07:04:25;16.87;;;12.10;;
8490;SDS011;4282;49.986;7.938;2024-02-15T07:06:54;18.03;;;13.47;;
8490;SDS011;4282;49.986;7.938;2024-02-15T07:09:23;21.27;;;13.53;;
8490;SDS011;4282;49.986;7.938;2024-02-15T07:11:56;25.63;;;13.90;;
8490;SDS011;4282;49.986;7.938;2024-02-15T07:14:24;19.47;;;13.27;;
8490;SDS011;4282;49.986;7.938;2024-02-15T07:16:53;21.43;;;13.40;;
8490;SDS011;4282;49.986;7.938;2024-02-15T07:19:23;21.60;;;13.40;;
8490;SDS011;4282;49.986;7.938;2024-02-15T07:21:52;19.23;;;12.63;;
8490;SDS011;4282;49.986;7.938;2024-02-15T07:24:21;21.63;;;13.50;;
8490;SDS011;4282;49.986;7.938;2024-02-15T07:26:52;22.77;;;13.27;;
8490;SDS011;4282;49.986;7.938;2024-02-15T07:29:23;19.73;;;13.63;;
8490;SDS011;4282;49.986;7.938;2024-02-15T07:31:52;20.23;;;13.80;;
8490;SDS011;4282;49.986;7.938;2024-02-15T07:34:21;21.53;;;13.57;;
8490;SDS011;4282;49.986;7.938;2024-02-15T07:36:51;22.67;;;15.37;;
8490;SDS011;4282;49.986;7.938;2024-02-15T07:39:20;23.00;;;15.07;;
8490;SDS011;4282;49.986;7.938;2024-02-15T07:41:55;20.67;;;15.07;;
8490;SDS011;4282;49.986;7.938;2024-02-15T07:44:24;22.77;;;15.73;;
8490;SDS011;4282;49.986;7.938;2024-02-15T07:46:55;21.07;;;15.13;;
8490;SDS011;4282;49.986;7.938;2024-02-15T07:49:25;26.57;;;16.23;;
8490;SDS011;4282;49.986;7.938;2024-02-15T07:51:53;23.03;;;16.20;;
8490;SDS011;4282;49.986;7.938;2024-02-15T07:54:23;20.83;;;15.07;;
8490;SDS011;4282;49.986;7.938;2024-02-15T07:56:51;20.67;;;14.30;;
8490;SDS011;4282;49.986;7.938;2024-02-15T07:59:22;19.10;;;14.07;;
8490;SDS011;4282;49.986;7.938;2024-02-15T08:01:50;20.60;;;13.97;;
8490;SDS011;4282;49.986;7.938;2024-02-15T08:04:19;22.90;;;15.03;;
8490;SDS011;4282;49.986;7.938;2024-02-15T08:06:48;19.93;;;14.23;;
8490;SDS011;4282;49.986;7.938;2024-02-15T08:09:18;24.73;;;15.97;;
8490;SDS011;4282;49.986;7.938;2024-02-15T08:11:49;17.17;;;13.33;;
8490;SDS011;4282;49.986;7.938;2024-02-15T08:14:17;20.37;;;14.37;;
8490;SDS011;4282;49.986;7.938;2024-02-15T08:16:48;17.60;;;13.73;;
8490;SDS011;4282;49.986;7.938;2024-02-15T08:19:17;17.23;;;12.50;;
8490;SDS011;4282;49.986;7.938;2024-02-15T08:21:47;17.87;;;12.17;;
8490;SDS011;4282;49.986;7.938;2024-02-15T08:24:16;15.17;;;12.00;;
8490;SDS011;4282;49.986;7.938;2024-02-15T08:26:44;16.93;;;11.30;;
8490;SDS011;4282;49.986;7.938;2024-02-15T08:29:12;16.23;;;12.47;;
8490;SDS011;4282;49.986;7.938;2024-02-15T08:31:41;20.90;;;12.97;;
8490;SDS011;4282;49.986;7.938;2024-02-15T08:34:11;18.70;;;13.73;;
8490;SDS011;4282;49.986;7.938;2024-02-15T08:36:40;20.83;;;14.37;;
8490;SDS011;4282;49.986;7.938;2024-02-15T08:39:08;19.07;;;14.70;;
8490;SDS011;4282;49.986;7.938;2024-02-15T08:41:37;19.43;;;14.53;;
8490;SDS011;4282;49.986;7.938;2024-02-15T08:44:05;24.73;;;15.50;;
8490;SDS011;4282;49.986;7.938;2024-02-15T08:46:36;20.93;;;15.27;;
8490;SDS011;4282;49.986;7.938;2024-02-15T08:49:05;25.07;;;15.40;;
8490;SDS011;4282;49.986;7.938;2024-02-15T08:51:35;21.37;;;15.27;;
8490;SDS011;4282;49.986;7.938;2024-02-15T08:54:04;24.67;;;15.40;;
8490;SDS011;4282;49.986;7.938;2024-02-15T08:56:33;25.20;;;15.87;;
8490;SDS011;4282;49.986;7.938;2024-02-15T08:59:03;21.03;;;15.10;;
8490;SDS011;4282;49.986;7.938;2024-02-15T09:01:31;21.83;;;14.97;;
8490;SDS011;4282;49.986;7.938;2024-02-15T09:04:00;19.90;;;14.87;;
8490;SDS011;4282;49.986;7.938;2024-02-15T09:06:28;21.67;;;14.73;;
8490;SDS011;4282;49.986;7.938;2024-02-15T09:08:59;18.77;;;14.77;;
8490;SDS011;4282;49.986;7.938;2024-02-15T09:11:28;20.50;;;15.30;;
8490;SDS011;4282;49.986;7.938;2024-02-15T09:13:57;20.33;;;14.20;;
8490;SDS011;4282;49.986;7.938;2024-02-15T09:16:25;21.43;;;14.90;;
8490;SDS011;4282;49.986;7.938;2024-02-15T09:18:54;21.77;;;14.83;;
8490;SDS011;4282;49.986;7.938;2024-02-15T09:21:25;25.00;;;16.50;;
8490;SDS011;4282;49.986;7.938;2024-02-15T09:23:54;19.50;;;14.77;;
8490;SDS011;4282;49.986;7.938;2024-02-15T09:26:25;21.70;;;14.97;;
8490;SDS011;4282;49.986;7.938;2024-02-15T09:28:55;20.53;;;13.93;;
8490;SDS011;4282;49.986;7.938;2024-02-15T09:31:23;20.40;;;14.30;;
8490;SDS011;4282;49.986;7.938;2024-02-15T09:33:52;18.03;;;14.23;;
8490;SDS011;4282;49.986;7.938;2024-02-15T09:36:20;20.30;;;13.97;;
8490;SDS011;4282;49.986;7.938;2024-02-15T09:38:49;18.37;;;12.80;;
8490;SDS011;4282;49.986;7.938;2024-02-15T09:41:17;18.37;;;13.30;;
8490;SDS011;4282;49.986;7.938;2024-02-15T09:43:48;18.90;;;13.53;;
8490;SDS011;4282;49.986;7.938;2024-02-15T09:46:17;18.47;;;13.57;;
8490;SDS011;4282;49.986;7.938;2024-02-15T09:48:45;18.77;;;13.30;;
8490;SDS011;4282;49.986;7.938;2024-02-15T09:51:23;18.60;;;13.70;;
8490;SDS011;4282;49.986;7.938;2024-02-15T09:53:53;17.47;;;14.03;;
8490;SDS011;4282;49.986;7.938;2024-02-15T09:56:26;20.63;;;13.13;;
8490;SDS011;4282;49.986;7.938;2024-02-15T09:58:57;15.70;;;12.30;;
8490;SDS011;4282;49.986;7.938;2024-02-15T10:01:27;16.60;;;11.73;;
8490;SDS011;4282;49.986;7.938;2024-02-15T10:03:59;15.33;;;12.63;;
8490;SDS011;4282;49.986;7.938;2024-02-15T10:06:29;14.07;;;12.10;;
8490;SDS011;4282;49.986;7.938;2024-02-15T10:11:54;15.60;;;12.07;;
8490;SDS011;4282;49.986;7.938;2024-02-15T10:14:27;14.63;;;11.60;;
8490;SDS011;4282;49.986;7.938;2024-02-15T10:16:56;15.50;;;12.03;;
8490;SDS011;4282;49.986;7.938;2024-02-15T10:19:24;13.80;;;11.10;;
8490;SDS011;4282;49.986;7.938;2024-02-15T10:22:04;14.33;;;10.90;;
8490;SDS011;4282;49.986;7.938;2024-02-15T10:24:33;12.57;;;10.13;;
8490;SDS011;4282;49.986;7.938;2024-02-15T10:27:02;14.03;;;9.70;;
8490;SDS011;4282;49.986;7.938;2024-02-15T10:29:34;13.17;;;9.53;;
8490;SDS011;4282;49.986;7.938;2024-02-15T10:32:05;11.97;;;9.53;;
8490;SDS011;4282;49.986;7.938;2024-02-15T10:34:36;14.30;;;10.00;;
8490;SDS011;4282;49.986;7.938;2024-02-15T10:37:11;12.90;;;9.43;;
8490;SDS011;4282;49.986;7.938;2024-02-15T10:39:41;12.87;;;8.97;;
8490;SDS011;4282;49.986;7.938;2024-02-15T10:42:10;13.43;;;9.40;;
8490;SDS011;4282;49.986;7.938;2024-02-15T10:44:42;9.57;;;7.93;;
8490;SDS011;4282;49.986;7.938;2024-02-15T10:47:11;12.43;;;8.20;;
8490;SDS011;4282;49.986;7.938;2024-02-15T10:49:40;9.70;;;7.73;;
8490;SDS011;4282;49.986;7.938;2024-02-15T10:52:08;9.77;;;8.20;;
8490;SDS011;4282;49.986;7.938;2024-02-15T10:54:40;11.00;;;8.07;;
8490;SDS011;4282;49.986;7.938;2024-02-15T10:57:11;12.10;;;8.40;;
8490;SDS011;4282;49.986;7.938;2024-02-15T10:59:47;11.47;;;7.37;;
8490;SDS011;4282;49.986;7.938;2024-02-15T11:02:33;9.57;;;6.53;;
8490;SDS011;4282;49.986;7.938;2024-02-15T11:05:02;10.20;;;7.07;;
8490;SDS011;4282;49.986;7.938;2024-02-15T11:07:35;9.40;;;7.33;;
8490;SDS011;4282;49.986;7.938;2024-02-15T11:10:04;11.43;;;7.23;;
8490;SDS011;4282;49.986;7.938;2024-02-15T11:12:35;8.67;;;7.57;;
8490;SDS011;4282;49.986;7.938;2024-02-15T11:15:07;11.77;;;7.37;;
8490;SDS011;4282;49.986;7.938;2024-02-15T11:17:46;7.40;;;6.60;;
8490;SDS011;4282;49.986;7.938;2024-02-15T11:23:24;10.00;;;6.57;;
8490;SDS011;4282;49.986;7.938;2024-02-15T11:25:55;10.90;;;6.33;;
8490;SDS011;4282;49.986;7.938;2024-02-15T11:28:43;8.53;;;6.30;;
8490;SDS011;4282;49.986;7.938;2024-02-15T11:40:13;9.60;;;5.70;;
8490;SDS011;4282;49.986;7.938;2024-02-15T11:42:42;7.73;;;5.97;;
8490;SDS011;4282;49.986;7.938;2024-02-15T11:45:11;13.53;;;10.90;;
8490;SDS011;4282;49.986;7.938;2024-02-15T11:47:40;28.07;;;21.00;;
8490;SDS011;4282;49.986;7.938;2024-02-15T11:50:16;7.37;;;5.50;;
8490;SDS011;4282;49.986;7.938;2024-02-15T11:52:46;7.33;;;5.27;;
8490;SDS011;4282;49.986;7.938;2024-02-15T11:55:17;8.03;;;4.90;;
8490;SDS011;4282;49.986;7.938;2024-02-15T11:57:55;6.70;;;4.70;;
8490;SDS011;4282;49.986;7.938;2024-02-15T12:00:30;8.00;;;4.83;;
8490;SDS011;4282;49.986;7.938;2024-02-15T12:03:13;8.73;;;5.23;;
8490;SDS011;4282;49.986;7.938;2024-02-15T12:05:57;6.97;;;5.13;;
8490;SDS011;4282;49.986;7.938;2024-02-15T12:08:38;9.40;;;6.20;;
8490;SDS011;4282;49.986;7.938;2024-02-15T12:11:18;6.87;;;5.40;;
8490;SDS011;4282;49.986;7.938;2024-02-15T12:13:59;7.30;;;5.43;;
8490;SDS011;4282;49.986;7.938;2024-02-15T12:16:40;8.00;;;5.63;;
8490;SDS011;4282;49.986;7.938;2024-02-15T12:19:20;7.43;;;5.47;;
8490;SDS011;4282;49.986;7.938;2024-02-15T12:21:52;8.10;;;5.30;;
8490;SDS011;4282;49.986;7.938;2024-02-15T12:24:20;7.53;;;5.33;;
8490;SDS011;4282;49.986;7.938;2024-02-15T12:26:51;6.93;;;5.40;;
8490;SDS011;4282;49.986;7.938;2024-02-15T12:29:20;7.33;;;5.10;;
8490;SDS011;4282;49.986;7.938;2024-02-15T12:31:49;5.73;;;5.17;;
8490;SDS011;4282;49.986;7.938;2024-02-15T12:34:18;7.27;;;4.83;;
8490;SDS011;4282;49.986;7.938;2024-02-15T12:36:48;8.10;;;4.83;;
8490;SDS011;4282;49.986;7.938;2024-02-15T12:39:26;6.87;;;5.43;;
8490;SDS011;4282;49.986;7.938;2024-02-15T12:41:56;7.37;;;5.20;;
8490;SDS011;4282;49.986;7.938;2024-02-15T12:44:25;7.67;;;4.77;;
8490;SDS011;4282;49.986;7.938;2024-02-15T12:46:57;8.57;;;5.27;;
8490;SDS011;4282;49.986;7.938;2024-02-15T12:49:28;5.17;;;4.63;;
8490;SDS011;4282;49.986;7.938;2024-02-15T12:55:14;9.43;;;5.20;;
8490;SDS011;4282;49.986;7.938;2024-02-15T12:57:45;9.30;;;5.40;;
8490;SDS011;4282;49.986;7.938;2024-02-15T13:00:17;7.20;;;4.37;;
8490;SDS011;4282;49.986;7.938;2024-02-15T13:02:46;6.40;;;4.10;;
8490;SDS011;4282;49.986;7.938;2024-02-15T13:05:15;4.37;;;3.90;;
8490;SDS011;4282;49.986;7.938;2024-02-15T13:07:43;9.83;;;4.60;;
8490;SDS011;4282;49.986;7.938;2024-02-15T13:10:14;5.90;;;4.27;;
8490;SDS011;4282;49.986;7.938;2024-02-15T13:12:43;6.97;;;4.20;;
8490;SDS011;4282;49.986;7.938;2024-02-15T13:15:13;7.10;;;3.97;;
8490;SDS011;4282;49.986;7.938;2024-02-15T13:17:43;5.73;;;4.33;;
8490;SDS011;4282;49.986;7.938;2024-02-15T13:20:14;8.07;;;4.20;;
8490;SDS011;4282;49.986;7.938;2024-02-15T13:22:45;6.97;;;3.93;;
8490;SDS011;4282;49.986;7.938;2024-02-15T13:25:17;5.80;;;3.70;;
8490;SDS011;4282;49.986;7.938;2024-02-15T13:27:47;6.77;;;3.67;;
8490;SDS011;4282;49.986;7.938;2024-02-15T13:30:16;6.03;;;3.80;;
8490;SDS011;4282;49.986;7.938;2024-02-15T13:32:48;5.30;;;3.63;;
8490;SDS011;4282;49.986;7.938;2024-02-15T13:35:16;5.70;;;3.73;;
8490;SDS011;4282;49.986;7.938;2024-02-15T13:37:48;7.80;;;3.83;;
8490;SDS011;4282;49.986;7.938;2024-02-15T13:40:20;6.30;;;4.13;;
8490;SDS011;4282;49.986;7.938;2024-02-15T13:42:49;6.97;;;3.90;;
8490;SDS011;4282;49.986;7.938;2024-02-15T13:45:18;14.23;;;4.27;;
8490;SDS011;4282;49.986;7.938;2024-02-15T13:47:47;9.27;;;4.20;;
8490;SDS011;4282;49.986;7.938;2024-02-15T13:50:16;6.50;;;4.30;;
8490;SDS011;4282;49.986;7.938;2024-02-15T13:52:47;6.90;;;4.17;;
8490;SDS011;4282;49.986;7.938;2024-02-15T13:55:16;9.20;;;4.50;;
8490;SDS011;4282;49.986;7.938;2024-02-15T13:57:48;7.63;;;4.00;;
8490;SDS011;4282;49.986;7.938;2024-02-15T14:00:17;4.70;;;4.00;;
8490;SDS011;4282;49.986;7.938;2024-02-15T14:02:54;6.30;;;3.77;;
8490;SDS011;4282;49.986;7.938;2024-02-15T14:05:24;6.00;;;4.00;;
8490;SDS011;4282;49.986;7.938;2024-02-15T14:07:54;7.03;;;4.20;;
8490;SDS011;4282;49.986;7.938;2024-02-15T14:10:23;7.50;;;4.13;;
8490;SDS011;4282;49.986;7.938;2024-02-15T14:12:54;8.43;;;4.87;;
8490;SDS011;4282;49.986;7.938;2024-02-15T14:15:24;6.27;;;5.27;;
8490;SDS011;4282;49.986;7.938;2024-02-15T14:17:53;7.30;;;4.60;;
8490;SDS011;4282;49.986;7.938;2024-02-15T14:20:22;7.13;;;5.00;;
8490;SDS011;4282;49.986;7.938;2024-02-15T14:22:50;4.73;;;4.23;;
8490;SDS011;4282;49.986;7.938;2024-02-15T14:25:21;6.70;;;4.23;;
8490;SDS011;4282;49.986;7.938;2024-02-15T14:27:50;5.13;;;4.53;;
8490;SDS011;4282;49.986;7.938;2024-02-15T14:30:21;6.33;;;4.40;;
8490;SDS011;4282;49.986;7.938;2024-02-15T14:33:02;9.50;;;4.80;;
8490;SDS011;4282;49.986;7.938;2024-02-15T14:35:34;6.97;;;4.83;;
8490;SDS011;4282;49.986;7.938;2024-02-15T14:38:04;8.73;;;4.80;;
8490;SDS011;4282;49.986;7.938;2024-02-15T14:40:36;6.20;;;4.57;;
8490;SDS011;4282;49.986;7.938;2024-02-15T14:43:05;7.17;;;4.90;;
8490;SDS011;4282;49.986;7.938;2024-02-15T14:45:36;8.43;;;4.33;;
8490;SDS011;4282;49.986;7.938;2024-02-15T14:48:06;6.80;;;4.07;;
8490;SDS011;4282;49.986;7.938;2024-02-15T14:50:35;8.07;;;4.33;;
8490;SDS011;4282;49.986;7.938;2024-02-15T14:53:03;5.87;;;3.90;;
8490;SDS011;4282;49.986;7.938;2024-02-15T14:55:32;6.23;;;3.77;;
8490;SDS011;4282;49.986;7.938;2024-02-15T14:58:04;5.43;;;3.20;;
8490;SDS011;4282;49.986;7.938;2024-02-15T15:00:33;8.27;;;3.70;;
8490;SDS011;4282;49.986;7.938;2024-02-15T15:03:04;5.83;;;3.07;;
8490;SDS011;4282;49.986;7.938;2024-02-15T15:05:32;6.97;;;3.27;;
8490;SDS011;4282;49.986;7.938;2024-02-15T15:08:13;4.53;;;3.20;;
8490;SDS011;4282;49.986;7.938;2024-02-15T15:10:54;3.43;;;3.13;;
8490;SDS011;4282;49.986;7.938;2024-02-15T15:13:35;5.63;;;3.17;;
8490;SDS011;4282;49.986;7.938;2024-02-15T15:16:06;6.03;;;3.03;;
8490;SDS011;4282;49.986;7.938;2024-02-15T15:18:39;5.00;;;3.27;;
8490;SDS011;4282;49.986;7.938;2024-02-15T15:21:07;6.50;;;2.97;;
8490;SDS011;4282;49.986;7.938;2024-02-15T15:23:37;3.90;;;2.73;;
8490;SDS011;4282;49.986;7.938;2024-02-15T15:26:05;6.57;;;2.70;;
8490;SDS011;4282;49.986;7.938;2024-02-15T15:28:36;6.40;;;2.93;;
8490;SDS011;4282;49.986;7.938;2024-02-15T15:31:07;5.37;;;2.60;;
8490;SDS011;4282;49.986;7.938;2024-02-15T15:33:35;5.70;;;2.27;;
8490;SDS011;4282;49.986;7.938;2024-02-15T15:36:04;3.03;;;2.40;;
8490;SDS011;4282;49.986;7.938;2024-02-15T15:38:32;6.70;;;3.00;;